createdAt,value
2022-11-28T00:01:36.889Z,3.90
2022-11-28T00:11:36.735Z,3.20
2022-11-28T00:21:36.777Z,8.30
2022-11-28T00:31:36.330Z,3.80
2022-11-28T00:41:36.272Z,3.80
2022-11-28T00:51:36.246Z,3.90
2022-11-28T01:01:36.310Z,5.80
2022-11-28T01:11:36.226Z,1.30
2022-11-28T01:21:35.757Z,2.80
2022-11-28T01:31:35.928Z,3.10
2022-11-28T01:41:35.743Z,1.70
2022-11-28T01:51:35.745Z,3.70
2022-11-28T02:01:35.715Z,1.00
2022-11-28T02:11:35.650Z,1.80
2022-11-28T02:21:35.739Z,2.80
2022-11-28T02:31:35.259Z,0.80
2022-11-28T02:41:35.196Z,1.20
2022-11-28T02:51:35.270Z,0.80
2022-11-28T03:01:35.254Z,1.30
2022-11-28T03:11:34.755Z,6.40
2022-11-28T03:21:34.608Z,1.80
2022-11-28T03:31:34.949Z,2.70
2022-11-28T03:41:34.702Z,8.00
2022-11-28T03:51:34.867Z,1.20
2022-11-28T04:01:34.573Z,1.80
2022-11-28T04:11:34.072Z,3.20
2022-11-28T04:21:35.545Z,3.30
2022-11-28T04:31:34.188Z,4.80
2022-11-28T04:41:34.144Z,2.50
2022-11-28T04:51:33.670Z,2.30
2022-11-28T05:01:33.711Z,2.00
2022-11-28T05:11:33.669Z,2.10
2022-11-28T05:21:34.303Z,5.00
2022-11-28T05:31:33.305Z,1.20
2022-11-28T05:41:33.276Z,1.40
2022-11-28T05:51:33.258Z,1.70
2022-11-28T06:01:33.325Z,2.00
2022-11-28T06:11:32.852Z,4.20
2022-11-28T06:21:32.790Z,6.50
2022-11-28T06:31:32.704Z,9.30
2022-11-28T06:41:33.483Z,4.30
2022-11-28T06:51:32.482Z,2.00
2022-11-28T07:01:32.467Z,3.30
2022-11-28T07:11:32.439Z,5.60
2022-11-28T07:21:32.423Z,3.60
2022-11-28T07:31:32.580Z,7.20
2022-11-28T07:41:32.254Z,3.80
2022-11-28T07:51:33.640Z,5.00
2022-11-28T08:01:33.215Z,6.20
2022-11-28T08:11:31.875Z,11.70
2022-11-28T08:21:33.330Z,7.70
2022-11-28T08:31:32.850Z,4.70
2022-11-28T08:41:31.465Z,7.90
2022-11-28T08:51:31.510Z,8.20
2022-11-28T09:01:31.075Z,9.10
2022-11-28T09:11:31.028Z,9.70
2022-11-28T09:21:31.016Z,8.90
2022-11-28T09:31:31.069Z,6.90
2022-11-28T09:41:30.966Z,9.30
2022-11-28T09:51:30.520Z,10.80
2022-11-28T10:01:30.538Z,10.50
2022-11-28T10:11:30.531Z,13.00
2022-11-28T10:21:30.374Z,9.80
2022-11-28T10:31:30.419Z,16.10
2022-11-28T10:41:30.404Z,14.30
2022-11-28T10:51:29.879Z,15.40
2022-11-28T11:01:29.944Z,10.30
2022-11-28T11:11:29.995Z,26.30
2022-11-28T11:21:30.066Z,17.60
2022-11-28T11:31:29.654Z,29.70
2022-11-28T11:41:29.563Z,33.10
2022-11-28T11:51:30.481Z,60.40
2022-11-28T12:01:29.121Z,24.30
2022-11-28T12:11:29.130Z,22.10
2022-11-28T12:21:29.150Z,28.80
2022-11-28T12:31:29.240Z,12.60
2022-11-28T12:41:32.471Z,39.00
2022-11-28T12:51:28.707Z,32.60
2022-11-28T13:01:28.806Z,21.60
2022-11-28T13:11:29.530Z,24.10
2022-11-28T13:21:29.813Z,16.60
2022-11-28T13:31:30.400Z,19.10
2022-11-28T13:42:05.849Z,28.90
2022-11-28T13:51:32.023Z,24.00
2022-11-28T14:01:31.134Z,15.30
2022-11-28T14:11:29.320Z,19.80
2022-11-28T14:21:29.263Z,22.30
2022-11-28T14:31:30.009Z,13.30
2022-11-28T14:41:28.953Z,29.00
2022-11-28T14:51:28.105Z,10.80
2022-11-28T15:01:29.072Z,9.90
2022-11-28T15:11:28.685Z,10.10
2022-11-28T15:21:27.965Z,10.40
2022-11-28T15:31:28.837Z,7.30
2022-11-28T15:41:28.361Z,17.20
2022-11-28T15:51:28.424Z,6.60
2022-11-28T16:01:27.752Z,6.30
2022-11-28T16:11:27.997Z,3.60
2022-11-28T16:21:28.054Z,5.90
2022-11-28T16:31:28.105Z,11.00
2022-11-28T16:41:27.181Z,7.10
2022-11-28T16:51:28.706Z,5.90
2022-11-28T17:01:27.851Z,12.50
2022-11-28T17:11:27.353Z,10.50
2022-11-28T17:21:26.698Z,10.50
2022-11-28T17:31:27.562Z,4.30
2022-11-28T17:41:27.172Z,5.70
2022-11-28T17:51:26.229Z,4.00
2022-11-28T18:01:26.838Z,5.10
2022-11-28T18:11:26.891Z,6.00
2022-11-28T18:21:26.576Z,4.20
2022-11-28T18:31:25.811Z,13.10
2022-11-28T18:41:26.757Z,5.10
2022-11-28T18:51:26.307Z,5.90
2022-11-28T19:01:25.968Z,6.00
2022-11-28T19:11:25.266Z,10.80
2022-11-28T19:21:24.655Z,6.40
2022-11-28T19:31:26.187Z,8.30
2022-11-28T19:41:25.224Z,5.80
2022-11-28T19:51:25.818Z,4.50
2022-11-28T20:01:24.640Z,5.00
2022-11-28T20:11:25.469Z,7.20
2022-11-28T20:21:25.579Z,7.30
2022-11-28T20:31:25.323Z,8.60
2022-11-28T20:41:24.909Z,13.10
2022-11-28T20:51:25.023Z,8.30
2022-11-28T21:01:23.607Z,11.70
2022-11-28T21:11:55.129Z,5.80
2022-11-28T21:21:23.527Z,6.20
2022-11-28T21:31:23.498Z,12.10
2022-11-28T21:41:23.397Z,9.60
2022-11-28T21:51:23.247Z,4.00
2022-11-28T22:01:24.665Z,4.50
2022-11-28T22:11:24.002Z,12.30
2022-11-28T22:21:50.629Z,13.80
2022-11-28T22:31:22.966Z,6.20
2022-11-28T22:41:28.376Z,11.30
2022-11-28T22:51:22.270Z,5.70
2022-11-28T23:01:22.682Z,7.80
2022-11-28T23:11:22.222Z,8.20
2022-11-28T23:21:22.161Z,13.30
2022-11-28T23:31:22.044Z,4.60
2022-11-28T23:41:21.974Z,7.20
2022-11-28T23:51:21.996Z,16.10
